Time;durP1;ratioP1;P1;durP2;ratioP2;P2;SDS_P1;SDS_P2;PMS_P1;PMS_P2;Temp;Humidity;BMP_temperature;BMP_pressure;BME280_temperature;BME280_humidity;BME280_pressure;Samples;Min_cycle;Max_cycle;Signal;HPM_P1;HPM_P2
2021/08/30 00:01:53;;;;;;;1.50;1.40;;;20.80;54.00;;;24.49;36.87;101531.09;5094655;28;20499;-34
2021/08/30 00:04:19;;;;;;;1.40;1.30;;;20.80;53.90;;;24.52;37.05;101528.19;5093720;28;20056;-34
2021/08/30 00:06:45;;;;;;;1.35;1.25;;;20.80;53.90;;;24.52;36.90;101528.19;5094223;28;20059;-34
2021/08/30 00:09:12;;;;;;;1.20;1.10;;;20.80;53.90;;;24.50;36.96;101523.91;5094237;28;20044;-34
2021/08/30 00:11:38;;;;;;;1.42;1.30;;;20.80;53.90;;;24.50;37.08;101527.44;5094253;28;20061;-35
2021/08/30 00:14:04;;;;;;;1.48;1.38;;;20.80;53.90;;;24.48;37.09;101524.00;5094103;28;20126;-34
2021/08/30 00:16:30;;;;;;;1.52;1.30;;;20.80;53.90;;;24.50;36.90;101527.44;5094116;28;20051;-34
2021/08/30 00:18:57;;;;;;;1.60;1.50;;;20.80;53.90;;;24.49;37.06;101527.53;5093945;28;20048;-34
2021/08/30 00:21:24;;;;;;;1.40;1.30;;;20.80;53.90;;;24.50;36.90;101527.44;5094049;28;20040;-34
2021/08/30 00:23:49;;;;;;;1.60;1.42;;;20.80;54.00;;;24.50;36.87;101523.91;5093941;28;20104;-34
2021/08/30 00:26:16;;;;;;;1.35;1.25;;;20.80;54.00;;;24.48;37.21;101520.50;5093217;28;20040;-34
2021/08/30 00:28:42;;;;;;;1.40;1.30;;;20.80;53.90;;;24.48;36.87;101524.00;5094057;28;20074;-35
2021/08/30 00:31:08;;;;;;;1.45;1.35;;;20.80;54.00;;;24.50;36.93;101523.91;5094196;28;20060;-34
2021/08/30 00:33:34;;;;;;;1.50;1.40;;;20.80;54.00;;;24.47;37.06;101506.25;5094090;28;20131;-35
2021/08/30 00:35:59;;;;;;;1.50;1.40;;;20.80;54.00;;;24.50;36.85;101518.56;5093810;28;20055;-34
2021/08/30 00:38:25;;;;;;;1.67;1.50;;;20.80;54.00;;;24.47;36.86;101519.59;5093631;28;20087;-34
2021/08/30 00:40:51;;;;;;;1.52;1.42;;;20.80;54.00;;;24.49;37.12;101520.38;5093755;28;20055;-34
2021/08/30 00:43:17;;;;;;;1.40;1.30;;;20.80;54.00;;;24.48;36.91;101518.66;5094026;28;20067;-34
2021/08/30 00:45:43;;;;;;;1.65;1.48;;;20.80;54.00;;;24.46;36.97;101520.59;5093622;28;20048;-34
2021/08/30 00:48:08;;;;;;;1.50;1.40;;;20.80;54.00;;;24.48;36.94;101520.50;5075423;28;20067;-35
2021/08/30 00:50:34;;;;;;;1.58;1.42;;;20.80;54.00;;;24.48;37.13;101521.34;5093436;28;20048;-34
2021/08/30 00:53:00;;;;;;;1.30;1.20;;;20.80;54.00;;;24.45;36.90;101518.88;5093512;28;20097;-34
2021/08/30 00:55:26;;;;;;;1.42;1.33;;;20.80;54.00;;;24.46;37.15;101517.03;5093376;28;20123;-34
2021/08/30 00:57:53;;;;;;;1.33;1.23;;;20.80;54.00;;;24.46;36.92;101520.59;5093668;28;20058;-34
2021/08/30 01:00:19;;;;;;;1.65;1.55;;;20.80;54.00;;;24.45;36.86;101526.03;5093377;28;20481;-34
2021/08/30 01:02:46;;;;;;;1.63;1.48;;;20.80;54.00;;;24.45;37.01;101521.53;5093390;28;20481;-34
2021/08/30 01:05:15;;;;;;;1.35;1.25;;;20.80;54.00;;;24.45;36.94;101529.56;5093234;28;20065;-34
2021/08/30 01:08:07;;;;;;;1.40;1.30;;;20.80;54.00;;;24.47;37.05;101530.31;5091963;28;20486;-34
2021/08/30 01:10:50;;;;;;;1.77;1.40;;;20.80;54.00;;;24.41;36.98;101528.06;5093194;28;20508;-34
2021/08/30 01:13:40;;;;;;;1.70;1.52;;;20.80;54.00;;;24.42;37.02;101527.97;5092318;28;20044;-34
2021/08/30 01:16:10;;;;;;;1.50;1.30;;;20.80;54.00;;;24.43;36.91;101531.47;5074176;28;20083;-34
2021/08/30 01:18:37;;;;;;;1.03;0.97;;;20.80;54.00;;;24.49;37.00;101539.09;5091898;28;20554;-34
2021/08/30 01:21:17;;;;;;;1.38;1.27;;;20.80;54.00;;;24.41;37.12;101534.25;5073107;28;20283;-34
2021/08/30 01:23:51;;;;;;;1.37;1.27;;;20.80;54.10;;;24.43;37.15;101542.16;5074577;28;20378;-34
2021/08/30 01:26:18;;;;;;;1.38;1.27;;;20.80;54.00;;;24.47;37.11;101548.16;5093001;28;20290;-34
2021/08/30 01:29:00;;;;;;;1.55;1.45;;;20.70;54.00;;;24.39;37.03;101543.31;5092916;28;20409;-34
2021/08/30 01:31:38;;;;;;;1.42;1.33;;;20.70;54.00;;;24.42;37.12;101540.44;5091761;28;20504;-34
2021/08/30 01:34:04;;;;;;;1.38;1.27;;;20.80;54.10;;;24.41;37.13;101539.59;5091670;28;20068;-34
2021/08/30 01:36:31;;;;;;;1.20;1.10;;;20.80;54.10;;;24.41;37.12;101547.63;5092659;28;20128;-34
2021/08/30 01:38:59;;;;;;;1.42;1.33;;;20.70;54.00;;;24.43;36.94;101547.53;5090484;28;20048;-34
2021/08/30 01:41:27;;;;;;;1.45;1.35;;;20.70;54.00;;;24.44;36.99;101545.69;5075107;28;20051;-34
2021/08/30 01:43:53;;;;;;;1.40;1.30;;;20.70;54.00;;;24.39;36.99;101533.50;5092724;28;20139;-34
2021/08/30 01:46:20;;;;;;;1.45;1.35;;;20.70;54.00;;;24.40;37.02;101537.88;5092610;28;20451;-34
2021/08/30 01:48:50;;;;;;;1.48;1.38;;;20.80;54.00;;;24.41;37.01;101530.72;5074693;28;20050;-34
2021/08/30 01:51:20;;;;;;;1.85;1.70;;;20.80;54.00;;;24.44;37.23;101529.66;5075570;28;20500;-34
2021/08/30 01:53:48;;;;;;;2.38;1.65;;;20.70;54.00;;;24.43;37.16;101534.16;5074607;28;20134;-34
2021/08/30 01:56:17;;;;;;;1.33;1.23;;;20.70;54.00;;;24.42;37.15;101537.78;5092565;28;20040;-34
2021/08/30 02:01:31;;;;;;;1.50;1.40;;;20.70;54.00;;;24.39;37.00;101530.84;5077491;28;20076;-34
2021/08/30 02:03:57;;;;;;;1.50;1.40;;;20.70;54.00;;;24.42;37.17;101540.44;5092825;28;20382;-34
2021/08/30 02:06:22;;;;;;;1.35;1.23;;;20.80;54.10;;;24.39;37.12;101536.19;5092581;28;20117;-34
2021/08/30 02:08:49;;;;;;;1.38;1.25;;;20.70;54.00;;;24.39;37.11;101535.28;5091099;28;20178;-34
2021/08/30 02:11:20;;;;;;;1.10;1.10;;;20.70;54.60;;;24.41;36.93;101539.59;5092316;28;20516;-34
2021/08/30 02:13:47;;;;;;;1.50;1.40;;;20.70;54.00;;;24.39;37.10;101532.63;5092456;28;20052;-34
2021/08/30 02:16:13;;;;;;;1.50;1.40;;;20.70;54.00;;;24.40;37.16;101523.66;5092414;28;20055;-34
2021/08/30 02:18:57;;;;;;;1.23;1.13;;;20.70;54.10;;;24.37;37.23;101532.75;5092193;28;20052;-34
2021/08/30 02:21:37;;;;;;;1.33;1.23;;;20.70;54.10;;;24.39;37.03;101529.94;5092278;28;20405;-34
2021/08/30 02:24:08;;;;;;;1.42;1.33;;;20.70;54.10;;;24.38;37.14;101531.78;5092592;28;20048;-34
2021/08/30 02:27:02;;;;;;;1.30;1.20;;;20.70;54.00;;;24.39;37.16;101538.84;5092510;28;20504;-35
2021/08/30 02:30:07;;;;;;;1.52;1.42;;;20.70;54.10;;;24.41;37.07;101541.41;5095860;28;20451;-35
2021/08/30 02:32:36;;;;;;;1.30;1.20;;;20.70;54.10;;;24.41;37.02;101538.75;5077863;28;20599;-34
2021/08/30 02:35:06;;;;;;;1.52;1.42;;;20.70;54.10;;;24.37;37.00;101524.72;5094447;28;20129;-35
2021/08/30 02:37:37;;;;;;;1.30;1.20;;;20.70;54.10;;;24.39;37.04;101535.28;5077203;28;20069;-36
2021/08/30 02:40:05;;;;;;;1.40;1.30;;;20.70;54.10;;;24.39;37.10;101522.81;5077877;28;20530;-34
2021/08/30 02:42:35;;;;;;;1.50;1.40;;;20.70;54.10;;;24.38;37.12;101536.28;5094246;28;20074;-34
2021/08/30 02:45:09;;;;;;;1.00;1.00;;;20.70;54.10;;;24.38;36.97;101538.94;5077394;28;20059;-34
2021/08/30 02:47:37;;;;;;;1.50;1.40;;;20.70;54.10;;;24.35;37.18;101518.59;5095523;28;20079;-34
2021/08/30 02:50:05;;;;;;;1.15;1.05;;;20.70;54.10;;;24.34;37.10;101524.94;5095540;28;20052;-34
2021/08/30 02:52:33;;;;;;;1.20;1.10;;;20.70;54.10;;;24.34;37.01;101519.59;5095691;28;20048;-34
2021/08/30 02:55:00;;;;;;;1.30;1.20;;;20.70;54.10;;;24.36;37.24;101524.84;5095508;28;20044;-34
2021/08/30 02:57:26;;;;;;;1.85;1.30;;;20.70;54.10;;;24.36;36.99;101536.38;5093439;28;20097;-34
2021/08/30 02:59:52;;;;;;;1.35;1.25;;;20.70;54.10;;;24.36;37.24;101527.50;5076192;28;20464;-34
2021/08/30 03:02:22;;;;;;;1.35;1.25;;;20.70;54.10;;;24.33;37.21;101520.53;5075475;28;20056;-34
2021/08/30 03:04:49;;;;;;;1.20;1.10;;;20.70;54.10;;;24.34;37.04;101522.25;5095083;28;20047;-34
2021/08/30 03:07:16;;;;;;;1.58;1.38;;;20.70;54.20;;;24.33;37.08;101523.22;5076502;28;20040;-34
2021/08/30 03:09:42;;;;;;;1.77;1.52;;;20.70;54.20;;;24.32;37.17;101523.31;5095041;28;20493;-34
2021/08/30 03:12:09;;;;;;;1.80;1.63;;;20.70;54.10;;;24.36;37.03;101523.00;5075431;28;20157;-34
2021/08/30 03:14:38;;;;;;;1.48;1.38;;;20.70;54.20;;;24.34;37.25;101514.25;5095653;28;20040;-34
2021/08/30 03:17:09;;;;;;;1.60;1.50;;;20.70;54.20;;;24.34;36.96;101519.59;5093562;28;20485;-34
2021/08/30 03:19:38;;;;;;;1.48;1.27;;;20.70;54.10;;;24.38;37.32;101520.25;5094344;28;20104;-34
2021/08/30 03:22:05;;;;;;;1.50;1.40;;;20.70;54.00;;;24.40;37.03;101529.00;5077057;28;20044;-34
2021/08/30 03:24:31;;;;;;;1.50;1.40;;;20.70;54.00;;;24.37;37.11;101521.19;5076814;28;20044;-35
2021/08/30 03:26:58;;;;;;;1.33;1.23;;;20.70;54.00;;;24.42;37.00;101527.09;5093912;28;20052;-35
2021/08/30 03:29:24;;;;;;;1.27;1.17;;;20.70;54.00;;;24.41;37.17;101525.38;5094707;28;20048;-34
2021/08/30 03:31:51;;;;;;;1.48;1.38;;;20.80;54.00;;;24.42;36.91;101519.94;5094751;28;20042;-34
2021/08/30 03:34:18;;;;;;;1.40;1.30;;;20.80;54.00;;;24.44;37.17;101516.28;5094786;28;20122;-34
2021/08/30 03:36:46;;;;;;;1.40;1.30;;;20.80;53.90;;;24.53;37.13;101526.38;5076493;28;20135;-34
2021/08/30 03:39:13;;;;;;;1.38;1.27;;;20.80;53.90;;;24.53;37.11;101526.38;5090717;28;20053;-34
2021/08/30 03:41:41;;;;;;;1.40;1.27;;;20.80;53.80;;;24.55;37.06;101525.34;5074610;28;20052;-34
2021/08/30 03:44:09;;;;;;;1.20;1.10;;;20.80;53.80;;;24.59;36.85;101534.88;5095035;28;20489;-34
2021/08/30 03:46:36;;;;;;;1.38;1.27;;;20.90;53.80;;;24.64;36.97;101541.72;5093235;28;20443;-34
2021/08/30 03:49:02;;;;;;;1.30;1.20;;;20.90;53.70;;;24.65;36.90;101536.28;5094620;28;20047;-34
2021/08/30 03:51:29;;;;;;;1.30;1.20;;;20.90;53.70;;;24.65;36.59;101530.94;5094458;28;20482;-34
2021/08/30 03:53:56;;;;;;;1.45;1.35;;;20.90;53.70;;;24.64;36.78;101531.03;5076337;28;20059;-34
2021/08/30 03:56:26;;;;;;;1.45;1.30;;;20.90;53.60;;;24.66;36.75;101532.66;5094681;28;20044;-34
2021/08/30 03:58:53;;;;;;;1.40;1.27;;;20.90;53.60;;;24.68;36.58;101530.72;5076403;28;20050;-34
2021/08/30 04:01:24;;;;;;;1.30;1.20;;;21.00;53.70;;;24.72;36.59;101531.38;5094316;28;20064;-34
2021/08/30 04:03:53;;;;;;;1.60;1.50;;;20.90;53.60;;;24.72;36.59;101529.56;5093438;28;20112;-34
2021/08/30 04:06:20;;;;;;;1.63;1.52;;;21.00;53.60;;;24.76;36.52;101538.25;5075126;28;20086;-34
2021/08/30 04:08:47;;;;;;;1.67;1.50;;;21.00;53.60;;;24.75;36.50;101540.03;5076089;28;20181;-34
2021/08/30 04:11:14;;;;;;;1.15;1.10;;;21.00;53.50;;;24.78;36.61;101547.03;5074301;28;20045;-34
2021/08/30 04:13:41;;;;;;;1.55;1.40;;;21.00;53.50;;;24.79;36.52;101543.38;5094095;28;20047;-34
2021/08/30 04:16:07;;;;;;;1.52;1.42;;;21.00;53.50;;;24.78;36.55;101539.00;5094284;28;20044;-34
2021/08/30 04:18:34;;;;;;;1.50;1.40;;;21.00;53.50;;;24.77;36.58;101538.16;5094031;28;20048;-34
2021/08/30 04:21:00;;;;;;;1.42;1.33;;;21.00;53.50;;;24.83;36.59;101552.06;5094300;28;20058;-34
2021/08/30 04:23:26;;;;;;;1.30;1.20;;;21.00;53.40;;;24.84;36.35;101548.41;5093915;28;20056;-34
2021/08/30 04:25:52;;;;;;;1.25;1.15;;;21.00;53.40;;;24.82;36.46;101553.84;5094032;28;20493;-34
2021/08/30 04:28:17;;;;;;;1.50;1.30;;;21.00;53.40;;;24.85;36.46;101555.47;5094048;28;20052;-34
2021/08/30 04:30:43;;;;;;;1.65;1.55;;;21.00;53.50;;;24.84;36.47;101556.44;5089716;28;20131;-34
2021/08/30 04:33:12;;;;;;;1.63;1.52;;;21.00;53.40;;;24.82;36.36;101553.84;5094327;28;20052;-35
2021/08/30 04:35:39;;;;;;;1.30;1.20;;;21.10;53.40;;;24.87;36.44;101559.75;5093793;28;20086;-34
2021/08/30 04:38:06;;;;;;;1.33;1.23;;;21.00;53.40;;;24.86;36.47;101560.72;5093671;28;20493;-34
2021/08/30 04:40:32;;;;;;;1.50;1.40;;;21.00;53.40;;;24.88;36.36;101564.16;5093639;28;20051;-34
2021/08/30 04:42:59;;;;;;;1.40;1.30;;;21.10;53.40;;;24.87;36.36;101566.94;5093709;28;20065;-34
2021/08/30 04:45:24;;;;;;;1.67;1.58;;;21.00;53.30;;;24.88;36.26;101563.31;5093681;28;20044;-34
2021/08/30 04:47:50;;;;;;;1.60;1.50;;;21.10;53.30;;;24.90;36.23;101564.91;5093979;28;20443;-35
2021/08/30 04:50:17;;;;;;;1.48;1.38;;;21.10;53.30;;;24.90;36.51;101559.53;5093356;28;20043;-34
2021/08/30 04:52:42;;;;;;;1.58;1.13;;;21.10;53.30;;;24.91;36.37;101563.94;5093765;28;20059;-34
2021/08/30 04:55:10;;;;;;;1.52;1.35;;;21.10;53.30;;;24.91;36.21;101569.31;5093538;28;20044;-34
2021/08/30 04:57:37;;;;;;;0.90;0.90;;;21.10;53.40;;;24.91;36.36;101568.44;5090639;28;20045;-34
2021/08/30 05:00:07;;;;;;;1.50;1.40;;;21.10;53.40;;;24.91;36.41;101576.47;5093533;28;20044;-34
2021/08/30 05:02:34;;;;;;;1.48;1.38;;;21.00;53.30;;;24.93;36.17;101574.56;5093518;28;20072;-35
2021/08/30 05:04:59;;;;;;;1.60;1.50;;;21.10;53.30;;;24.91;36.34;101568.44;5093385;28;20121;-34
2021/08/30 05:07:25;;;;;;;1.83;1.67;;;21.10;53.30;;;24.93;36.29;101578.06;5093022;28;20135;-34
2021/08/30 05:09:51;;;;;;;1.60;1.50;;;21.10;53.30;;;24.95;36.08;101583.31;5093498;28;20052;-34
2021/08/30 05:12:17;;;;;;;1.50;1.40;;;21.10;53.30;;;24.95;36.15;101580.66;5093207;28;20048;-34
2021/08/30 05:14:42;;;;;;;1.40;1.30;;;21.10;53.30;;;24.92;36.23;101575.50;5093118;28;20501;-34
2021/08/30 05:17:08;;;;;;;1.65;1.55;;;21.10;53.30;;;24.93;36.29;101578.06;5093494;28;20481;-34
2021/08/30 05:19:34;;;;;;;1.60;1.50;;;21.10;53.30;;;24.94;36.17;101577.13;5093057;28;20050;-34
2021/08/30 05:22:00;;;;;;;1.30;1.20;;;21.10;53.30;;;24.99;36.28;101575.94;5093004;28;20040;-33
2021/08/30 05:24:25;;;;;;;1.33;1.23;;;21.10;53.30;;;24.97;36.05;101570.69;5093528;28;20052;-34
2021/08/30 05:26:51;;;;;;;1.30;1.20;;;21.10;53.30;;;24.99;36.22;101578.63;5093056;28;20089;-33
2021/08/30 05:29:17;;;;;;;1.73;1.63;;;21.10;53.20;;;25.01;36.12;101580.25;5092934;28;20048;-34
2021/08/30 05:31:44;;;;;;;1.50;1.40;;;21.10;53.20;;;25.02;36.03;101583.75;5092813;28;20420;-33
2021/08/30 05:34:10;;;;;;;1.20;1.15;;;21.10;53.20;;;25.03;36.22;101581.00;5092896;28;20504;-33
2021/08/30 05:36:35;;;;;;;1.35;1.25;;;21.10;53.10;;;25.03;35.93;101581.00;5092806;28;20052;-34
2021/08/30 05:39:01;;;;;;;1.38;1.27;;;21.20;53.10;;;25.10;35.96;101594.81;5092812;28;20519;-33
2021/08/30 05:41:27;;;;;;;1.58;1.48;;;21.20;53.00;;;25.09;36.07;101585.94;5093020;28;20055;-33
2021/08/30 05:43:53;;;;;;;1.80;1.70;;;21.30;53.10;;;25.12;35.95;101592.88;5092756;28;20097;-33
2021/08/30 05:46:18;;;;;;;2.00;1.70;;;21.30;53.20;;;25.15;35.89;101592.66;5092686;28;20064;-33
2021/08/30 05:48:49;;;;;;;1.80;1.70;;;21.30;53.10;;;25.15;36.14;101590.00;5092610;28;20056;-33
2021/08/30 05:51:15;;;;;;;1.90;1.70;;;21.30;53.10;;;25.18;36.01;101592.47;5092554;28;20066;-33
2021/08/30 05:53:42;;;;;;;2.05;1.80;;;21.30;53.10;;;25.22;35.89;101591.28;5092379;28;20126;-33
2021/08/30 05:56:08;;;;;;;1.92;1.77;;;21.40;53.10;;;25.25;35.98;101580.38;5092487;28;20457;-33
2021/08/30 05:58:35;;;;;;;1.60;1.50;;;21.50;53.00;;;25.31;35.92;101595.19;5092270;28;20048;-33
2021/08/30 06:01:03;;;;;;;1.98;1.77;;;21.50;53.00;;;25.36;35.99;101590.38;5092481;28;20135;-33
2021/08/30 06:03:29;;;;;;;1.70;1.60;;;21.50;52.80;;;25.41;35.82;101590.03;5091761;28;20051;-33
2021/08/30 06:05:55;;;;;;;1.80;1.38;;;21.60;52.70;;;25.45;35.81;101587.03;5092574;28;20055;-33
2021/08/30 06:08:21;;;;;;;1.88;1.77;;;21.70;52.60;;;25.52;35.67;101590.16;5092308;28;20064;-33
2021/08/30 06:10:47;;;;;;;1.60;1.50;;;21.80;52.40;;;25.61;35.61;101594.88;5092643;28;20447;-33
2021/08/30 06:13:12;;;;;;;1.80;1.70;;;21.90;52.10;;;25.70;35.44;101593.38;5092461;28;20178;-34
2021/08/30 06:15:38;;;;;;;1.52;1.40;;;22.00;51.90;;;25.74;35.50;101585.97;5092579;28;20052;-34
2021/08/30 06:18:04;;;;;;;2.78;2.15;;;22.10;51.80;;;25.82;35.33;101591.63;5092032;28;20044;-34
2021/08/30 06:20:30;;;;;;;2.33;2.13;;;22.20;51.60;;;25.89;35.39;101583.06;5092073;28;20396;-34
2021/08/30 06:22:56;;;;;;;2.38;2.17;;;22.30;51.40;;;26.00;35.17;101578.78;5092532;28;20048;-34
2021/08/30 06:25:22;;;;;;;2.33;1.90;;;22.40;51.20;;;26.04;35.02;101578.47;5092136;28;20398;-34
2021/08/30 06:27:48;;;;;;;2.30;2.08;;;22.40;51.10;;;26.02;35.09;101576.84;5092220;28;20048;-35
2021/08/30 06:30:13;;;;;;;1.90;1.70;;;22.40;51.20;;;26.05;35.05;101585.50;5089982;28;20048;-34
2021/08/30 06:32:39;;;;;;;2.17;2.00;;;22.30;51.20;;;26.05;34.97;101590.88;5092422;28;20052;-35
2021/08/30 06:35:05;;;;;;;2.33;1.92;;;22.30;51.90;;;26.04;34.96;101591.84;5092578;28;20554;-34
2021/08/30 06:37:31;;;;;;;2.03;1.83;;;22.30;51.50;;;26.03;34.97;101591.97;5091965;28;20055;-35
2021/08/30 06:39:57;;;;;;;2.25;2.05;;;22.30;51.50;;;26.01;35.13;101584.03;5091945;28;20048;-35
2021/08/30 06:42:22;;;;;;;2.17;1.98;;;22.30;51.60;;;26.02;35.03;101598.28;5092099;28;20105;-35
2021/08/30 06:44:48;;;;;;;2.17;1.95;;;22.30;51.60;;;26.03;35.13;101600.84;5091815;28;20105;-34
2021/08/30 06:47:14;;;;;;;2.45;2.20;;;22.30;51.70;;;26.03;35.03;101589.28;5091730;28;20153;-35
2021/08/30 06:49:40;;;;;;;2.33;2.10;;;22.20;51.60;;;26.02;35.04;101593.75;5091623;28;20079;-34
2021/08/30 06:52:06;;;;;;;2.90;2.05;;;22.30;51.70;;;26.06;35.06;101597.06;5091777;28;20048;-35
2021/08/30 06:54:34;;;;;;;2.40;2.20;;;22.30;51.70;;;26.07;35.04;101601.47;5092113;28;20044;-35
2021/08/30 06:57:00;;;;;;;2.40;2.20;;;22.30;51.70;;;26.06;35.02;101589.91;5091655;28;20059;-35
2021/08/30 06:59:25;;;;;;;2.63;2.22;;;22.30;51.50;;;26.16;35.11;101599.94;5091592;28;20084;-34
2021/08/30 07:01:51;;;;;;;2.17;1.98;;;22.40;51.50;;;26.22;34.86;101594.16;5091761;28;20044;-34
2021/08/30 07:04:17;;;;;;;2.50;2.30;;;22.50;51.30;;;26.26;34.99;101590.25;5090735;28;20125;-34
2021/08/30 07:06:43;;;;;;;3.88;2.53;;;22.60;51.10;;;26.40;34.76;101592.78;5091558;28;20066;-35
2021/08/30 07:09:08;;;;;;;2.65;2.05;;;22.80;50.80;;;26.53;34.67;101586.50;5091583;28;20048;-35
2021/08/30 07:11:34;;;;;;;2.85;2.47;;;23.00;50.50;;;26.66;34.52;101602.59;5091552;28;20048;-35
2021/08/30 07:14:00;;;;;;;2.60;2.40;;;23.10;50.30;;;26.71;34.38;101593.22;5092130;28;20048;-34
2021/08/30 07:16:27;;;;;;;3.25;2.63;;;23.20;50.00;;;26.81;34.41;101593.38;5094957;28;20101;-34
2021/08/30 07:18:53;;;;;;;2.65;2.30;;;23.30;49.90;;;26.91;33.96;101585.50;5095222;28;20044;-35
2021/08/30 07:21:19;;;;;;;4.00;2.80;;;23.30;49.80;;;26.99;33.96;101591.13;5094900;28;20048;-35
2021/08/30 07:23:45;;;;;;;2.95;2.47;;;23.30;49.70;;;27.04;34.02;101590.78;5094842;28;20430;-35
2021/08/30 07:26:10;;;;;;;4.43;2.63;;;23.40;49.60;;;27.03;33.63;101600.69;5094827;28;20050;-35
2021/08/30 07:28:36;;;;;;;2.85;2.53;;;23.30;49.80;;;26.97;33.77;101599.31;5076791;28;20052;-35
2021/08/30 07:31:02;;;;;;;3.17;2.50;;;23.10;50.00;;;26.89;34.02;101604.38;5094538;28;20096;-35
2021/08/30 07:33:27;;;;;;;2.58;2.30;;;23.00;50.20;;;26.83;33.98;101599.50;5094847;28;20485;-35
2021/08/30 07:35:53;;;;;;;3.03;2.72;;;23.00;50.40;;;26.82;34.18;101610.34;5094964;28;20366;-34
2021/08/30 07:38:20;;;;;;;2.80;2.40;;;22.90;50.50;;;26.77;34.12;101616.06;5092549;28;20052;-35
2021/08/30 07:40:46;;;;;;;2.53;2.25;;;22.90;50.70;;;26.71;34.31;101608.47;5094575;28;20055;-34
2021/08/30 07:43:11;;;;;;;3.30;2.55;;;22.80;50.80;;;26.68;34.37;101620.28;5094838;28;20048;-35
2021/08/30 07:45:37;;;;;;;2.35;2.15;;;22.80;50.90;;;26.63;34.25;101614.41;5094454;28;20070;-34
2021/08/30 07:48:03;;;;;;;3.83;2.30;;;22.70;50.90;;;26.60;34.26;101611.94;5094560;28;20044;-34
2021/08/30 07:50:29;;;;;;;2.88;2.50;;;22.70;50.90;;;26.58;34.54;101617.41;5093120;28;20059;-35
2021/08/30 07:52:55;;;;;;;3.17;2.30;;;22.70;51.10;;;26.51;34.58;101616.13;5094624;28;20076;-34
2021/08/30 07:55:21;;;;;;;3.15;2.50;;;22.60;51.10;;;26.52;34.41;101627.72;5094385;28;20511;-34
2021/08/30 07:57:47;;;;;;;4.13;2.50;;;22.60;51.30;;;26.47;34.68;101620.00;5094372;28;20052;-34
2021/08/30 08:00:13;;;;;;;3.67;2.45;;;22.60;51.30;;;26.42;34.51;101614.97;5094279;28;20383;-34
2021/08/30 08:02:40;;;;;;;3.42;2.97;;;22.60;51.30;;;26.42;34.53;101620.34;5094209;28;20040;-34
2021/08/30 08:05:07;;;;;;;2.60;2.40;;;22.60;51.40;;;26.40;34.67;101626.81;5094452;28;20052;-34
2021/08/30 08:07:36;;;;;;;2.78;2.47;;;22.50;52.00;;;26.37;34.81;101621.66;5093982;28;20051;-34
2021/08/30 08:10:05;;;;;;;2.95;2.65;;;22.50;51.50;;;26.38;34.73;101621.56;5094670;28;20409;-34
2021/08/30 08:12:32;;;;;;;3.33;2.80;;;22.50;51.50;;;26.38;34.89;101618.00;5094416;28;20485;-34
2021/08/30 08:14:57;;;;;;;4.40;2.90;;;22.60;51.60;;;26.39;34.82;101623.25;5093949;28;20048;-34
2021/08/30 08:17:23;;;;;;;2.83;2.60;;;22.50;51.50;;;26.41;34.85;101629.38;5093663;28;20122;-34
2021/08/30 08:19:49;;;;;;;3.38;2.80;;;22.60;51.50;;;26.43;34.77;101630.13;5093941;28;20081;-35
2021/08/30 08:22:15;;;;;;;2.95;2.63;;;22.60;51.30;;;26.51;34.59;101637.56;5094022;28;20482;-35
2021/08/30 08:24:41;;;;;;;3.08;2.78;;;22.80;51.20;;;26.57;34.60;101631.78;5093328;28;20590;-34
2021/08/30 08:27:06;;;;;;;2.60;2.40;;;22.80;51.00;;;26.64;34.39;101629.53;5093832;28;20501;-34
2021/08/30 08:29:32;;;;;;;3.50;2.90;;;22.90;50.90;;;26.66;34.51;101632.94;5094060;28;20485;-34
2021/08/30 08:31:58;;;;;;;2.90;2.60;;;23.00;50.80;;;26.70;34.36;101636.28;5094207;28;20394;-34
2021/08/30 08:34:24;;;;;;;3.13;2.70;;;23.00;50.70;;;26.73;34.36;101636.91;5093799;28;20401;-34
2021/08/30 08:36:49;;;;;;;3.75;2.60;;;22.90;50.70;;;26.69;34.25;101634.56;5093745;28;20051;-34
2021/08/30 08:39:15;;;;;;;2.70;2.50;;;22.90;50.80;;;26.65;34.54;101635.72;5093568;28;20056;-35
2021/08/30 08:41:41;;;;;;;3.45;2.85;;;22.90;50.90;;;26.61;34.78;101637.75;5094205;28;20056;-35
2021/08/30 08:44:08;;;;;;;3.15;2.83;;;22.80;51.10;;;26.53;34.49;101637.47;5093682;28;20052;-34
2021/08/30 08:46:38;;;;;;;3.00;2.70;;;22.70;51.30;;;26.50;34.64;101632.34;5093599;28;20052;-34
2021/08/30 08:49:05;;;;;;;3.05;2.80;;;22.60;51.30;;;26.47;34.48;101644.16;5093821;28;20052;-35
2021/08/30 08:51:31;;;;;;;3.35;3.00;;;22.60;51.40;;;26.43;34.66;101634.63;5093561;28;20044;-34
2021/08/30 08:53:58;;;;;;;2.80;2.50;;;22.60;51.50;;;26.42;34.88;101647.16;5093516;28;20079;-34
2021/08/30 08:56:26;;;;;;;2.55;2.35;;;22.60;51.50;;;26.42;34.81;101647.16;5093401;28;20420;-34
2021/08/30 08:58:52;;;;;;;3.40;2.75;;;22.60;51.50;;;26.43;34.89;101646.19;5093067;28;20047;-34
2021/08/30 09:01:27;;;;;;;3.40;3.10;;;22.60;51.50;;;26.41;34.90;101653.50;5093366;28;20526;-35
2021/08/30 09:03:57;;;;;;;2.72;2.53;;;22.60;51.60;;;26.44;34.96;101647.91;5093522;28;20401;-35
2021/08/30 09:06:39;;;;;;;3.57;3.27;;;22.60;51.50;;;26.45;34.89;101646.09;5093511;28;20040;-35
2021/08/30 09:09:17;;;;;;;3.78;3.40;;;22.60;51.50;;;26.46;34.96;101649.63;5093191;28;20091;-35
2021/08/30 09:11:51;;;;;;;4.80;3.22;;;22.60;51.60;;;26.44;34.83;101644.38;5093257;28;20052;-35
2021/08/30 09:14:23;;;;;;;3.13;2.83;;;22.60;51.60;;;26.39;34.94;101639.34;5090294;28;20067;-34
2021/08/30 09:17:03;;;;;;;3.05;2.75;;;22.60;51.70;;;26.39;35.02;101660.78;5074428;28;20060;-35
2021/08/30 09:19:29;;;;;;;3.33;2.90;;;22.50;51.70;;;26.39;34.86;101655.44;5092896;28;20044;-34
2021/08/30 09:21:54;;;;;;;3.47;3.17;;;22.50;51.70;;;26.34;34.86;101662.94;5093002;28;20056;-34
2021/08/30 09:24:23;;;;;;;3.78;3.22;;;22.50;51.70;;;26.34;35.07;101664.78;5093071;28;20055;-34
2021/08/30 09:26:58;;;;;;;2.97;2.67;;;22.50;51.80;;;26.32;35.14;101664.88;5092714;28;20039;-34
2021/08/30 09:29:27;;;;;;;4.15;3.13;;;22.60;51.90;;;26.30;34.94;101652.59;5057903;28;20068;-34
2021/08/30 09:32:10;;;;;;;3.47;3.00;;;22.50;51.90;;;26.31;34.98;101667.69;5092772;28;20048;-35
2021/08/30 09:34:39;;;;;;;3.50;2.80;;;22.50;51.90;;;26.27;35.08;101669.72;5092834;28;20472;-34
2021/08/30 09:37:12;;;;;;;5.20;3.40;;;22.50;52.00;;;26.28;35.04;101667.91;5091661;28;20051;-35
2021/08/30 09:39:48;;;;;;;3.90;3.03;;;22.50;52.10;;;26.27;35.36;101666.22;5092615;28;20066;-34
2021/08/30 09:42:14;;;;;;;4.85;3.22;;;22.50;52.20;;;26.23;35.26;101663.75;5092843;28;20134;-34
2021/08/30 09:44:40;;;;;;;4.57;3.20;;;22.50;52.30;;;26.24;35.35;101667.25;5092610;28;20097;-34
2021/08/30 09:47:12;;;;;;;4.22;3.83;;;22.40;52.30;;;26.24;35.25;101667.25;5092435;28;20047;-35
2021/08/30 09:49:39;;;;;;;3.35;3.05;;;22.50;52.20;;;26.24;35.34;101668.16;5074638;28;20117;-35
2021/08/30 09:52:05;;;;;;;3.85;3.25;;;22.50;52.10;;;26.28;35.52;101667.91;5092437;28;20036;-34
2021/08/30 09:54:31;;;;;;;3.53;3.22;;;22.50;52.00;;;26.27;35.26;101661.69;5092444;28;20071;-34
2021/08/30 09:56:57;;;;;;;3.42;3.10;;;22.60;52.00;;;26.34;35.29;101672.81;5092171;28;20101;-34
2021/08/30 09:59:25;;;;;;;3.70;3.38;;;22.60;52.00;;;26.35;35.38;101669.19;5092592;28;20094;-34
2021/08/30 10:01:54;;;;;;;3.42;3.13;;;22.60;52.00;;;26.30;35.21;101672.19;5092409;28;20044;-35
2021/08/30 10:04:20;;;;;;;5.00;3.30;;;22.60;51.90;;;26.31;35.36;101663.19;5092355;28;20048;-34
2021/08/30 10:06:50;;;;;;;3.80;3.40;;;22.60;52.50;;;26.33;35.23;101668.41;5092347;28;20040;-35
2021/08/30 10:09:19;;;;;;;3.67;3.38;;;22.60;52.00;;;26.33;35.33;101666.63;5092377;28;20048;-34
2021/08/30 10:11:46;;;;;;;3.45;3.15;;;22.60;52.00;;;26.35;35.32;101671.88;5092268;28;20131;-34
2021/08/30 10:14:18;;;;;;;3.97;3.40;;;22.60;52.00;;;26.34;35.31;101678.19;5092189;28;20048;-34
2021/08/30 10:16:45;;;;;;;3.53;3.17;;;22.60;52.00;;;26.34;35.41;101671.00;5074356;28;20139;-35
2021/08/30 10:19:12;;;;;;;4.03;3.47;;;22.50;52.00;;;26.31;35.30;101670.38;5092370;28;20511;-34